sensor_id;sensor_type;location;lat;lon;timestamp;pressure;altitude;pressure_sealevel;temperature;humidity
45731;BME280;31440;48.584;13.460;2023-02-17T00:02:41;97786.88;;;-1.13;100.00
45731;BME280;31440;48.584;13.460;2023-02-17T00:05:46;97809.00;;;-1.12;100.00
45731;BME280;31440;48.584;13.460;2023-02-17T00:08:54;97807.06;;;-1.22;100.00
45731;BME280;31440;48.584;13.460;2023-02-17T00:11:59;97803.41;;;-1.70;100.00
45731;BME280;31440;48.584;13.460;2023-02-17T00:15:04;97798.03;;;-1.80;100.00
45731;BME280;31440;48.584;13.460;2023-02-17T00:18:08;97768.78;;;-1.60;100.00
45731;BME280;31440;48.584;13.460;2023-02-17T00:21:18;97785.19;;;-1.50;100.00
45731;BME280;31440;48.584;13.460;2023-02-17T00:24:25;97771.03;;;-1.36;100.00
45731;BME280;31440;48.584;13.460;2023-02-17T00:27:29;97793.28;;;-1.31;100.00
45731;BME280;31440;48.584;13.460;2023-02-17T00:30:36;97759.53;;;-1.19;100.00
45731;BME280;31440;48.584;13.460;2023-02-17T00:33:41;97773.22;;;-1.15;100.00
45731;BME280;31440;48.584;13.460;2023-02-17T00:36:45;97735.59;;;-1.24;100.00
45731;BME280;31440;48.584;13.460;2023-02-17T00:39:50;97777.41;;;-1.17;100.00
45731;BME280;31440;48.584;13.460;2023-02-17T00:42:55;97774.00;;;-1.18;100.00
45731;BME280;31440;48.584;13.460;2023-02-17T00:46:01;97740.75;;;-1.21;100.00
45731;BME280;31440;48.584;13.460;2023-02-17T00:49:17;97753.69;;;-1.13;100.00
45731;BME280;31440;48.584;13.460;2023-02-17T00:52:23;97750.69;;;-0.94;100.00
45731;BME280;31440;48.584;13.460;2023-02-17T00:55:27;97776.69;;;-1.12;100.00
45731;BME280;31440;48.584;13.460;2023-02-17T00:58:32;97753.34;;;-1.30;100.00
45731;BME280;31440;48.584;13.460;2023-02-17T01:01:38;97785.38;;;-1.04;100.00
45731;BME280;31440;48.584;13.460;2023-02-17T01:04:43;97757.88;;;-1.17;100.00
45731;BME280;31440;48.584;13.460;2023-02-17T01:07:51;97757.91;;;-1.15;100.00
45731;BME280;31440;48.584;13.460;2023-02-17T01:10:56;97751.25;;;-1.07;100.00
45731;BME280;31440;48.584;13.460;2023-02-17T01:14:03;97746.38;;;-0.97;100.00
45731;BME280;31440;48.584;13.460;2023-02-17T01:17:09;97751.25;;;-1.07;100.00
45731;BME280;31440;48.584;13.460;2023-02-17T01:20:14;97702.34;;;-1.27;100.00
45731;BME280;31440;48.584;13.460;2023-02-17T01:23:18;97700.53;;;-1.33;100.00
45731;BME280;31440;48.584;13.460;2023-02-17T01:26:26;97719.06;;;-1.01;100.00
45731;BME280;31440;48.584;13.460;2023-02-17T01:29:31;97730.00;;;-0.64;100.00
45731;BME280;31440;48.584;13.460;2023-02-17T01:32:36;97692.88;;;-1.33;100.00
45731;BME280;31440;48.584;13.460;2023-02-17T01:35:40;97718.97;;;-1.44;100.00
45731;BME280;31440;48.584;13.460;2023-02-17T01:38:45;97667.16;;;-1.01;100.00
45731;BME280;31440;48.584;13.460;2023-02-17T01:41:50;97689.97;;;-1.09;100.00
45731;BME280;31440;48.584;13.460;2023-02-17T01:48:37;97713.81;;;-0.65;100.00
45731;BME280;31440;48.584;13.460;2023-02-17T01:51:47;97722.16;;;-0.75;100.00
45731;BME280;31440;48.584;13.460;2023-02-17T01:54:58;97743.50;;;-0.70;100.00
45731;BME280;31440;48.584;13.460;2023-02-17T01:58:06;97690.78;;;-1.10;100.00
45731;BME280;31440;48.584;13.460;2023-02-17T02:01:12;97696.94;;;-0.55;100.00
45731;BME280;31440;48.584;13.460;2023-02-17T02:04:19;97679.78;;;-0.64;100.00
45731;BME280;31440;48.584;13.460;2023-02-17T02:07:29;97716.31;;;-0.68;100.00
45731;BME280;31440;48.584;13.460;2023-02-17T02:10:35;97689.69;;;-0.80;100.00
45731;BME280;31440;48.584;13.460;2023-02-17T02:13:42;97692.06;;;-0.88;100.00
45731;BME280;31440;48.584;13.460;2023-02-17T02:17:03;97714.81;;;-0.58;100.00
45731;BME280;31440;48.584;13.460;2023-02-17T02:20:42;97706.59;;;-0.42;100.00
45731;BME280;31440;48.584;13.460;2023-02-17T02:24:03;97690.38;;;-0.87;100.00
45731;BME280;31440;48.584;13.460;2023-02-17T02:31:07;97712.53;;;-0.43;100.00
45731;BME280;31440;48.584;13.460;2023-02-17T02:34:21;97671.25;;;-0.64;100.00
45731;BME280;31440;48.584;13.460;2023-02-17T02:37:34;97657.25;;;-0.84;100.00
45731;BME280;31440;48.584;13.460;2023-02-17T02:40:45;97698.31;;;-0.75;100.00
45731;BME280;31440;48.584;13.460;2023-02-17T02:43:50;97674.22;;;-0.86;100.00
45731;BME280;31440;48.584;13.460;2023-02-17T02:46:58;97682.50;;;-1.00;100.00
45731;BME280;31440;48.584;13.460;2023-02-17T02:50:04;97651.66;;;-1.09;100.00
45731;BME280;31440;48.584;13.460;2023-02-17T02:53:43;97661.69;;;-1.19;100.00
45731;BME280;31440;48.584;13.460;2023-02-17T03:00:40;97665.00;;;-0.80;100.00
45731;BME280;31440;48.584;13.460;2023-02-17T03:07:16;97669.88;;;-0.45;100.00
45731;BME280;31440;48.584;13.460;2023-02-17T03:10:25;97674.03;;;-0.52;100.00
45731;BME280;31440;48.584;13.460;2023-02-17T03:13:32;97665.81;;;-0.34;100.00
45731;BME280;31440;48.584;13.460;2023-02-17T03:16:38;97643.94;;;-0.68;100.00
45731;BME280;31440;48.584;13.460;2023-02-17T03:19:43;97626.28;;;-1.03;100.00
45731;BME280;31440;48.584;13.460;2023-02-17T03:22:49;97671.28;;;-0.63;100.00
45731;BME280;31440;48.584;13.460;2023-02-17T03:25:54;97654.97;;;-0.69;100.00
45731;BME280;31440;48.584;13.460;2023-02-17T03:28:59;97614.50;;;-0.96;100.00
45731;BME280;31440;48.584;13.460;2023-02-17T03:32:06;97643.69;;;-0.82;100.00
45731;BME280;31440;48.584;13.460;2023-02-17T03:35:11;97650.06;;;-0.58;100.00
45731;BME280;31440;48.584;13.460;2023-02-17T03:38:15;97659.72;;;-0.42;100.00
45731;BME280;31440;48.584;13.460;2023-02-17T03:41:20;97665.50;;;-0.52;100.00
45731;BME280;31440;48.584;13.460;2023-02-17T03:44:25;97664.63;;;-0.53;100.00
45731;BME280;31440;48.584;13.460;2023-02-17T03:47:29;97671.22;;;-0.66;100.00
45731;BME280;31440;48.584;13.460;2023-02-17T03:50:34;97657.78;;;-1.01;100.00
45731;BME280;31440;48.584;13.460;2023-02-17T03:53:39;97646.91;;;-0.90;100.00
45731;BME280;31440;48.584;13.460;2023-02-17T03:56:44;97617.19;;;-0.87;100.00
45731;BME280;31440;48.584;13.460;2023-02-17T03:59:49;97647.44;;;-0.63;100.00
45731;BME280;31440;48.584;13.460;2023-02-17T04:02:54;97620.28;;;-0.56;100.00
45731;BME280;31440;48.584;13.460;2023-02-17T04:06:00;97655.56;;;-0.36;100.00
45731;BME280;31440;48.584;13.460;2023-02-17T04:09:05;97660.00;;;-0.74;100.00
45731;BME280;31440;48.584;13.460;2023-02-17T04:12:09;97645.63;;;-0.69;100.00
45731;BME280;31440;48.584;13.460;2023-02-17T04:15:14;97615.38;;;-0.46;100.00
45731;BME280;31440;48.584;13.460;2023-02-17T04:18:19;97653.44;;;-0.61;100.00
45731;BME280;31440;48.584;13.460;2023-02-17T04:21:24;97630.34;;;-0.66;100.00
45731;BME280;31440;48.584;13.460;2023-02-17T04:24:29;97600.91;;;-0.95;100.00
45731;BME280;31440;48.584;13.460;2023-02-17T04:27:34;97642.56;;;-0.49;100.00
45731;BME280;31440;48.584;13.460;2023-02-17T04:30:41;97634.56;;;-0.16;100.00
45731;BME280;31440;48.584;13.460;2023-02-17T04:33:46;97610.34;;;-0.41;100.00
45731;BME280;31440;48.584;13.460;2023-02-17T04:36:51;97659.34;;;-0.14;100.00
45731;BME280;31440;48.584;13.460;2023-02-17T04:39:55;97652.13;;;-0.38;100.00
45731;BME280;31440;48.584;13.460;2023-02-17T04:43:00;97656.44;;;-0.34;100.00
45731;BME280;31440;48.584;13.460;2023-02-17T04:46:04;97626.22;;;-0.59;100.00
45731;BME280;31440;48.584;13.460;2023-02-17T04:49:10;97653.81;;;-0.40;100.00
45731;BME280;31440;48.584;13.460;2023-02-17T04:52:14;97650.13;;;-0.04;100.00
45731;BME280;31440;48.584;13.460;2023-02-17T04:55:19;97628.50;;;-0.24;100.00
45731;BME280;31440;48.584;13.460;2023-02-17T04:58:24;97650.31;;;0.08;100.00
45731;BME280;31440;48.584;13.460;2023-02-17T05:01:28;97641.94;;;0.20;100.00
45731;BME280;31440;48.584;13.460;2023-02-17T05:04:33;97640.16;;;0.13;100.00
45731;BME280;31440;48.584;13.460;2023-02-17T05:07:38;97651.47;;;0.30;100.00
45731;BME280;31440;48.584;13.460;2023-02-17T05:10:43;97599.06;;;-0.52;100.00
45731;BME280;31440;48.584;13.460;2023-02-17T05:13:47;97639.97;;;-0.51;100.00
45731;BME280;31440;48.584;13.460;2023-02-17T05:16:52;97592.84;;;-0.68;100.00
45731;BME280;31440;48.584;13.460;2023-02-17T05:19:56;97604.19;;;-0.52;100.00
45731;BME280;31440;48.584;13.460;2023-02-17T05:23:01;97590.25;;;-0.71;100.00
45731;BME280;31440;48.584;13.460;2023-02-17T05:26:07;97582.81;;;-0.56;100.00
45731;BME280;31440;48.584;13.460;2023-02-17T05:29:12;97628.88;;;-0.53;100.00
45731;BME280;31440;48.584;13.460;2023-02-17T05:32:17;97584.84;;;-0.88;100.00
45731;BME280;31440;48.584;13.460;2023-02-17T05:35:22;97632.41;;;-0.46;100.00
45731;BME280;31440;48.584;13.460;2023-02-17T05:38:26;97652.97;;;-0.85;100.00
45731;BME280;31440;48.584;13.460;2023-02-17T05:41:31;97661.59;;;-0.80;100.00
45731;BME280;31440;48.584;13.460;2023-02-17T05:44:35;97655.59;;;-0.34;100.00
45731;BME280;31440;48.584;13.460;2023-02-17T05:47:40;97655.25;;;-0.54;100.00
45731;BME280;31440;48.584;13.460;2023-02-17T05:50:45;97619.34;;;-0.63;100.00
45731;BME280;31440;48.584;13.460;2023-02-17T05:53:49;97618.28;;;-0.74;100.00
45731;BME280;31440;48.584;13.460;2023-02-17T05:56:54;97652.94;;;-0.40;100.00
45731;BME280;31440;48.584;13.460;2023-02-17T05:59:59;97670.91;;;-0.36;100.00
45731;BME280;31440;48.584;13.460;2023-02-17T06:03:03;97656.81;;;-0.62;100.00
45731;BME280;31440;48.584;13.460;2023-02-17T06:06:08;97666.56;;;-0.41;100.00
45731;BME280;31440;48.584;13.460;2023-02-17T06:09:13;97632.91;;;-0.14;100.00
45731;BME280;31440;48.584;13.460;2023-02-17T06:12:17;97644.16;;;-0.05;100.00
45731;BME280;31440;48.584;13.460;2023-02-17T06:15:22;97644.22;;;-0.51;100.00
45731;BME280;31440;48.584;13.460;2023-02-17T06:18:27;97657.19;;;-0.41;100.00
45731;BME280;31440;48.584;13.460;2023-02-17T06:21:31;97646.19;;;-0.35;100.00
45731;BME280;31440;48.584;13.460;2023-02-17T06:24:36;97629.22;;;-0.32;100.00
45731;BME280;31440;48.584;13.460;2023-02-17T06:27:41;97646.63;;;-0.09;100.00
45731;BME280;31440;48.584;13.460;2023-02-17T06:30:47;97605.53;;;-0.23;100.00
45731;BME280;31440;48.584;13.460;2023-02-17T06:33:52;97619.34;;;-0.10;100.00
45731;BME280;31440;48.584;13.460;2023-02-17T06:36:56;97578.69;;;-0.49;100.00
45731;BME280;31440;48.584;13.460;2023-02-17T06:40:01;97633.09;;;-0.02;100.00
45731;BME280;31440;48.584;13.460;2023-02-17T06:43:06;97602.16;;;-0.19;100.00
45731;BME280;31440;48.584;13.460;2023-02-17T06:46:10;97588.56;;;-0.16;100.00
45731;BME280;31440;48.584;13.460;2023-02-17T06:49:15;97617.50;;;-0.19;100.00
45731;BME280;31440;48.584;13.460;2023-02-17T06:52:19;97594.69;;;-0.07;100.00
45731;BME280;31440;48.584;13.460;2023-02-17T06:55:24;97634.94;;;0.06;100.00
45731;BME280;31440;48.584;13.460;2023-02-17T06:58:29;97584.25;;;-0.20;100.00
45731;BME280;31440;48.584;13.460;2023-02-17T07:01:34;97637.94;;;0.38;100.00
45731;BME280;31440;48.584;13.460;2023-02-17T07:04:40;97625.91;;;0.30;100.00
45731;BME280;31440;48.584;13.460;2023-02-17T07:07:44;97608.59;;;0.12;100.00
45731;BME280;31440;48.584;13.460;2023-02-17T07:10:49;97591.56;;;0.13;100.00
45731;BME280;31440;48.584;13.460;2023-02-17T07:13:54;97629.69;;;0.59;100.00
45731;BME280;31440;48.584;13.460;2023-02-17T07:16:58;97583.50;;;0.49;100.00
45731;BME280;31440;48.584;13.460;2023-02-17T07:20:03;97621.13;;;0.57;100.00
45731;BME280;31440;48.584;13.460;2023-02-17T07:23:09;97618.00;;;0.79;100.00
45731;BME280;31440;48.584;13.460;2023-02-17T07:26:13;97638.78;;;1.04;100.00
45731;BME280;31440;48.584;13.460;2023-02-17T07:29:18;97607.00;;;0.90;100.00
45731;BME280;31440;48.584;13.460;2023-02-17T07:32:23;97599.31;;;0.88;100.00
45731;BME280;31440;48.584;13.460;2023-02-17T07:35:27;97595.91;;;0.86;100.00
45731;BME280;31440;48.584;13.460;2023-02-17T07:38:32;97624.91;;;0.85;100.00
45731;BME280;31440;48.584;13.460;2023-02-17T07:41:37;97612.22;;;0.97;100.00
45731;BME280;31440;48.584;13.460;2023-02-17T07:44:45;97608.69;;;0.85;100.00
45731;BME280;31440;48.584;13.460;2023-02-17T07:47:50;97638.00;;;1.12;100.00
45731;BME280;31440;48.584;13.460;2023-02-17T07:50:55;97636.16;;;0.99;100.00
45731;BME280;31440;48.584;13.460;2023-02-17T07:54:00;97594.00;;;0.68;100.00
45731;BME280;31440;48.584;13.460;2023-02-17T07:57:04;97606.44;;;1.13;100.00
45731;BME280;31440;48.584;13.460;2023-02-17T08:00:09;97630.31;;;1.12;100.00
45731;BME280;31440;48.584;13.460;2023-02-17T08:03:17;97617.44;;;1.06;100.00
45731;BME280;31440;48.584;13.460;2023-02-17T08:06:23;97627.09;;;1.30;100.00
45731;BME280;31440;48.584;13.460;2023-02-17T08:09:28;97600.25;;;0.95;100.00
45731;BME280;31440;48.584;13.460;2023-02-17T08:12:51;97630.50;;;1.31;100.00
45731;BME280;31440;48.584;13.460;2023-02-17T08:16:14;97626.38;;;1.45;100.00
45731;BME280;31440;48.584;13.460;2023-02-17T08:19:19;97607.56;;;1.43;100.00
45731;BME280;31440;48.584;13.460;2023-02-17T08:22:23;97598.84;;;1.21;100.00
45731;BME280;31440;48.584;13.460;2023-02-17T08:25:32;97608.44;;;1.45;100.00
45731;BME280;31440;48.584;13.460;2023-02-17T08:28:37;97605.97;;;1.54;100.00
45731;BME280;31440;48.584;13.460;2023-02-17T08:31:42;97616.38;;;1.71;100.00
45731;BME280;31440;48.584;13.460;2023-02-17T08:34:48;97614.63;;;1.68;100.00
45731;BME280;31440;48.584;13.460;2023-02-17T08:37:52;97621.50;;;1.77;100.00
45731;BME280;31440;48.584;13.460;2023-02-17T08:40:57;97625.66;;;1.60;100.00
45731;BME280;31440;48.584;13.460;2023-02-17T08:44:06;97636.88;;;1.72;100.00
45731;BME280;31440;48.584;13.460;2023-02-17T08:47:11;97627.69;;;1.99;100.00
45731;BME280;31440;48.584;13.460;2023-02-17T08:50:16;97597.41;;;1.54;100.00
45731;BME280;31440;48.584;13.460;2023-02-17T08:53:23;97626.66;;;1.74;100.00
45731;BME280;31440;48.584;13.460;2023-02-17T08:56:28;97639.84;;;2.30;100.00
45731;BME280;31440;48.584;13.460;2023-02-17T08:59:33;97640.84;;;2.46;100.00
45731;BME280;31440;48.584;13.460;2023-02-17T09:02:38;97596.03;;;1.98;100.00
45731;BME280;31440;48.584;13.460;2023-02-17T09:05:45;97629.53;;;2.21;100.00
45731;BME280;31440;48.584;13.460;2023-02-17T09:08:50;97592.00;;;2.35;100.00
45731;BME280;31440;48.584;13.460;2023-02-17T09:11:56;97638.38;;;2.73;100.00
45731;BME280;31440;48.584;13.460;2023-02-17T09:15:02;97626.25;;;2.48;100.00
45731;BME280;31440;48.584;13.460;2023-02-17T09:18:07;97629.88;;;2.85;100.00
45731;BME280;31440;48.584;13.460;2023-02-17T09:21:12;97640.22;;;2.99;100.00
45731;BME280;31440;48.584;13.460;2023-02-17T09:24:18;97605.06;;;2.90;100.00
45731;BME280;31440;48.584;13.460;2023-02-17T09:27:22;97646.25;;;3.10;100.00
45731;BME280;31440;48.584;13.460;2023-02-17T09:30:28;97636.81;;;3.00;100.00
45731;BME280;31440;48.584;13.460;2023-02-17T09:33:33;97618.75;;;2.80;100.00
45731;BME280;31440;48.584;13.460;2023-02-17T09:36:39;97628.25;;;3.08;100.00
45731;BME280;31440;48.584;13.460;2023-02-17T09:39:46;97582.00;;;3.10;100.00
45731;BME280;31440;48.584;13.460;2023-02-17T09:42:50;97609.44;;;3.21;100.00
45731;BME280;31440;48.584;13.460;2023-02-17T09:45:59;97593.19;;;3.19;100.00
45731;BME280;31440;48.584;13.460;2023-02-17T09:49:11;97602.59;;;3.23;100.00
45731;BME280;31440;48.584;13.460;2023-02-17T09:55:52;97623.25;;;4.07;100.00
45731;BME280;31440;48.584;13.460;2023-02-17T09:59:01;97621.41;;;4.70;100.00
45731;BME280;31440;48.584;13.460;2023-02-17T10:05:54;97589.75;;;4.33;100.00
45731;BME280;31440;48.584;13.460;2023-02-17T10:12:26;97607.78;;;4.24;100.00
45731;BME280;31440;48.584;13.460;2023-02-17T10:15:38;97597.41;;;4.62;100.00
45731;BME280;31440;48.584;13.460;2023-02-17T10:18:49;97600.78;;;4.73;100.00
45731;BME280;31440;48.584;13.460;2023-02-17T10:22:10;97597.25;;;4.99;100.00
45731;BME280;31440;48.584;13.460;2023-02-17T10:25:19;97602.25;;;5.24;100.00
45731;BME280;31440;48.584;13.460;2023-02-17T10:31:49;97563.69;;;5.05;100.00
45731;BME280;31440;48.584;13.460;2023-02-17T10:35:16;97590.19;;;5.32;100.00
45731;BME280;31440;48.584;13.460;2023-02-17T10:38:50;97592.53;;;5.66;100.00
45731;BME280;31440;48.584;13.460;2023-02-17T10:41:55;97546.28;;;5.36;100.00
45731;BME280;31440;48.584;13.460;2023-02-17T10:45:37;97567.13;;;6.17;100.00
45731;BME280;31440;48.584;13.460;2023-02-17T10:48:48;97558.22;;;6.45;100.00
45731;BME280;31440;48.584;13.460;2023-02-17T10:51:55;97564.34;;;6.40;100.00
45731;BME280;31440;48.584;13.460;2023-02-17T10:55:08;97550.81;;;6.12;100.00
45731;BME280;31440;48.584;13.460;2023-02-17T11:01:40;97559.25;;;6.32;100.00
45731;BME280;31440;48.584;13.460;2023-02-17T11:04:47;97541.66;;;6.63;100.00
45731;BME280;31440;48.584;13.460;2023-02-17T11:08:13;97562.19;;;5.91;100.00
45731;BME280;31440;48.584;13.460;2023-02-17T11:11:27;97513.41;;;6.49;100.00
45731;BME280;31440;48.584;13.460;2023-02-17T11:14:35;97511.13;;;6.20;100.00
45731;BME280;31440;48.584;13.460;2023-02-17T11:17:40;97519.81;;;6.13;100.00
45731;BME280;31440;48.584;13.460;2023-02-17T11:20:46;97546.34;;;6.27;100.00
45731;BME280;31440;48.584;13.460;2023-02-17T11:23:58;97510.88;;;6.43;100.00
45731;BME280;31440;48.584;13.460;2023-02-17T11:27:23;97539.22;;;6.51;100.00
45731;BME280;31440;48.584;13.460;2023-02-17T11:30:30;97497.22;;;6.30;100.00
45731;BME280;31440;48.584;13.460;2023-02-17T11:33:38;97529.28;;;6.88;100.00
45731;BME280;31440;48.584;13.460;2023-02-17T11:36:44;97523.94;;;7.00;100.00
45731;BME280;31440;48.584;13.460;2023-02-17T11:39:51;97526.56;;;7.55;100.00
45731;BME280;31440;48.584;13.460;2023-02-17T11:43:00;97516.69;;;7.25;100.00
45731;BME280;31440;48.584;13.460;2023-02-17T11:46:13;97498.78;;;7.66;100.00
45731;BME280;31440;48.584;13.460;2023-02-17T11:49:46;97491.47;;;7.37;100.00
45731;BME280;31440;48.584;13.460;2023-02-17T11:53:06;97489.44;;;8.05;100.00
45731;BME280;31440;48.584;13.460;2023-02-17T11:56:21;97472.66;;;7.80;100.00
45731;BME280;31440;48.584;13.460;2023-02-17T12:07:05;97449.59;;;7.66;100.00
45731;BME280;31440;48.584;13.460;2023-02-17T12:10:41;97437.59;;;8.07;100.00
45731;BME280;31440;48.584;13.460;2023-02-17T12:14:14;97463.19;;;8.24;100.00
45731;BME280;31440;48.584;13.460;2023-02-17T12:21:04;97462.50;;;8.14;100.00
45731;BME280;31440;48.584;13.460;2023-02-17T12:24:38;97459.47;;;7.92;100.00
45731;BME280;31440;48.584;13.460;2023-02-17T12:35:30;97443.13;;;7.41;100.00
45731;BME280;31440;48.584;13.460;2023-02-17T12:38:33;97434.84;;;7.70;100.00
45731;BME280;31440;48.584;13.460;2023-02-17T12:41:50;97404.91;;;7.57;100.00
45731;BME280;31440;48.584;13.460;2023-02-17T12:45:06;97411.34;;;7.82;100.00
45731;BME280;31440;48.584;13.460;2023-02-17T12:48:31;97434.66;;;7.82;100.00
45731;BME280;31440;48.584;13.460;2023-02-17T12:54:51;97431.84;;;8.37;100.00
45731;BME280;31440;48.584;13.460;2023-02-17T12:58:06;97416.06;;;8.05;100.00
45731;BME280;31440;48.584;13.460;2023-02-17T13:01:14;97437.31;;;7.78;100.00
45731;BME280;31440;48.584;13.460;2023-02-17T13:04:23;97436.53;;;7.72;100.00
45731;BME280;31440;48.584;13.460;2023-02-17T13:07:45;97399.38;;;7.75;100.00
45731;BME280;31440;48.584;13.460;2023-02-17T13:11:02;97393.91;;;7.90;100.00
45731;BME280;31440;48.584;13.460;2023-02-17T13:14:28;97433.91;;;7.74;100.00
45731;BME280;31440;48.584;13.460;2023-02-17T13:17:37;97436.47;;;7.75;100.00
45731;BME280;31440;48.584;13.460;2023-02-17T13:20:52;97432.44;;;7.10;100.00
45731;BME280;31440;48.584;13.460;2023-02-17T13:24:11;97432.25;;;7.21;100.00
45731;BME280;31440;48.584;13.460;2023-02-17T13:30:39;97429.34;;;6.87;100.00
45731;BME280;31440;48.584;13.460;2023-02-17T13:36:54;97431.63;;;7.07;100.00
45731;BME280;31440;48.584;13.460;2023-02-17T13:40:01;97424.75;;;7.04;100.00
45731;BME280;31440;48.584;13.460;2023-02-17T13:43:16;97422.06;;;7.12;100.00
45731;BME280;31440;48.584;13.460;2023-02-17T13:46:24;97406.47;;;7.16;100.00
45731;BME280;31440;48.584;13.460;2023-02-17T13:49:31;97401.97;;;7.27;100.00
45731;BME280;31440;48.584;13.460;2023-02-17T13:52:42;97413.44;;;7.13;100.00
45731;BME280;31440;48.584;13.460;2023-02-17T13:55:47;97395.59;;;7.47;100.00
45731;BME280;31440;48.584;13.460;2023-02-17T13:58:52;97410.31;;;7.89;100.00
45731;BME280;31440;48.584;13.460;2023-02-17T14:01:56;97402.41;;;7.51;100.00
45731;BME280;31440;48.584;13.460;2023-02-17T14:05:10;97368.59;;;7.61;100.00
45731;BME280;31440;48.584;13.460;2023-02-17T14:08:45;97396.53;;;7.43;100.00
45731;BME280;31440;48.584;13.460;2023-02-17T14:11:51;97410.09;;;7.04;100.00
45731;BME280;31440;48.584;13.460;2023-02-17T14:14:56;97402.25;;;7.12;100.00
45731;BME280;31440;48.584;13.460;2023-02-17T14:18:12;97410.47;;;7.34;100.00
45731;BME280;31440;48.584;13.460;2023-02-17T14:21:24;97391.03;;;7.12;100.00
45731;BME280;31440;48.584;13.460;2023-02-17T14:24:34;97424.28;;;7.33;100.00
45731;BME280;31440;48.584;13.460;2023-02-17T14:27:44;97427.03;;;7.24;100.00
45731;BME280;31440;48.584;13.460;2023-02-17T14:30:49;97422.44;;;6.87;100.00
45731;BME280;31440;48.584;13.460;2023-02-17T14:33:57;97412.47;;;6.61;100.00
45731;BME280;31440;48.584;13.460;2023-02-17T14:37:22;97450.34;;;6.64;100.00
45731;BME280;31440;48.584;13.460;2023-02-17T14:40:27;97442.81;;;6.47;100.00
45731;BME280;31440;48.584;13.460;2023-02-17T14:43:32;97440.75;;;6.72;100.00
45731;BME280;31440;48.584;13.460;2023-02-17T14:46:37;97445.34;;;7.12;100.00
45731;BME280;31440;48.584;13.460;2023-02-17T14:49:42;97407.56;;;6.43;100.00
45731;BME280;31440;48.584;13.460;2023-02-17T14:52:47;97423.59;;;6.68;100.00
45731;BME280;31440;48.584;13.460;2023-02-17T14:56:20;97454.50;;;6.76;100.00
45731;BME280;31440;48.584;13.460;2023-02-17T14:59:27;97461.72;;;6.49;100.00
45731;BME280;31440;48.584;13.460;2023-02-17T15:02:35;97462.66;;;6.42;100.00
45731;BME280;31440;48.584;13.460;2023-02-17T15:05:40;97462.28;;;6.73;100.00
45731;BME280;31440;48.584;13.460;2023-02-17T15:08:46;97438.72;;;6.26;100.00
45731;BME280;31440;48.584;13.460;2023-02-17T15:11:52;97434.38;;;6.34;100.00
45731;BME280;31440;48.584;13.460;2023-02-17T15:14:57;97458.34;;;6.44;100.00
45731;BME280;31440;48.584;13.460;2023-02-17T15:18:02;97459.19;;;6.45;100.00
45731;BME280;31440;48.584;13.460;2023-02-17T15:21:18;97446.44;;;6.32;100.00
45731;BME280;31440;48.584;13.460;2023-02-17T15:24:26;97460.44;;;6.10;100.00
45731;BME280;31440;48.584;13.460;2023-02-17T15:27:36;97435.63;;;5.98;100.00
45731;BME280;31440;48.584;13.460;2023-02-17T15:30:45;97416.06;;;5.79;100.00
45731;BME280;31440;48.584;13.460;2023-02-17T15:33:55;97449.63;;;5.78;100.00
45731;BME280;31440;48.584;13.460;2023-02-17T15:37:01;97421.28;;;5.73;100.00
45731;BME280;31440;48.584;13.460;2023-02-17T15:40:06;97420.22;;;5.92;100.00
45731;BME280;31440;48.584;13.460;2023-02-17T15:43:18;97431.78;;;5.55;100.00
45731;BME280;31440;48.584;13.460;2023-02-17T15:46:34;97442.19;;;5.49;100.00
45731;BME280;31440;48.584;13.460;2023-02-17T15:49:38;97413.59;;;5.70;100.00
45731;BME280;31440;48.584;13.460;2023-02-17T15:52:44;97431.75;;;5.58;100.00
45731;BME280;31440;48.584;13.460;2023-02-17T15:55:49;97431.56;;;5.78;100.00
45731;BME280;31440;48.584;13.460;2023-02-17T15:58:57;97424.91;;;5.54;100.00
45731;BME280;31440;48.584;13.460;2023-02-17T16:02:16;97420.31;;;5.85;100.00
45731;BME280;31440;48.584;13.460;2023-02-17T16:05:27;97421.06;;;5.93;100.00
45731;BME280;31440;48.584;13.460;2023-02-17T16:08:32;97420.19;;;5.95;100.00
45731;BME280;31440;48.584;13.460;2023-02-17T16:11:45;97393.75;;;5.74;100.00
45731;BME280;31440;48.584;13.460;2023-02-17T16:14:51;97392.66;;;5.94;100.00
45731;BME280;31440;48.584;13.460;2023-02-17T16:17:56;97401.16;;;6.06;100.00
45731;BME280;31440;48.584;13.460;2023-02-17T16:21:02;97408.09;;;6.00;100.00
45731;BME280;31440;48.584;13.460;2023-02-17T16:24:06;97419.38;;;5.89;100.00
45731;BME280;31440;48.584;13.460;2023-02-17T16:27:13;97409.63;;;6.14;100.00
45731;BME280;31440;48.584;13.460;2023-02-17T16:30:33;97384.69;;;6.13;100.00
45731;BME280;31440;48.584;13.460;2023-02-17T16:33:38;97374.59;;;5.93;100.00
45731;BME280;31440;48.584;13.460;2023-02-17T16:36:43;97403.53;;;6.21;100.00
45731;BME280;31440;48.584;13.460;2023-02-17T16:39:47;97413.75;;;6.28;100.00
45731;BME280;31440;48.584;13.460;2023-02-17T16:42:52;97385.56;;;6.12;100.00
45731;BME280;31440;48.584;13.460;2023-02-17T16:46:00;97379.44;;;6.20;100.00
45731;BME280;31440;48.584;13.460;2023-02-17T16:49:17;97417.75;;;6.54;100.00
45731;BME280;31440;48.584;13.460;2023-02-17T16:52:24;97390.47;;;6.31;100.00
45731;BME280;31440;48.584;13.460;2023-02-17T16:55:32;97426.19;;;6.66;100.00
45731;BME280;31440;48.584;13.460;2023-02-17T16:58:37;97422.00;;;6.59;100.00
45731;BME280;31440;48.584;13.460;2023-02-17T17:01:44;97414.09;;;6.01;100.00
45731;BME280;31440;48.584;13.460;2023-02-17T17:04:49;97428.50;;;6.20;100.00
45731;BME280;31440;48.584;13.460;2023-02-17T17:07:54;97422.41;;;6.24;100.00
45731;BME280;31440;48.584;13.460;2023-02-17T17:10:58;97436.03;;;6.40;100.00
45731;BME280;31440;48.584;13.460;2023-02-17T17:14:03;97439.19;;;6.60;100.00
45731;BME280;31440;48.584;13.460;2023-02-17T17:17:08;97428.38;;;6.32;100.00
45731;BME280;31440;48.584;13.460;2023-02-17T17:20:17;97444.53;;;6.48;100.00